Time;durP1;ratioP1;P1;durP2;ratioP2;P2;SDS_P1;SDS_P2;PMS_P1;PMS_P2;Temp;Humidity;BMP_temperature;BMP_pressure;BME280_temperature;BME280_humidity;BME280_pressure;Samples;Min_cycle;Max_cycle;Signal;HPM_P1;HPM_P2
2024/01/05 00:00:36;;;;;;;4.07;2.53;;;17.20;47.50;;;;;;5147576;27;45271;-66
2024/01/05 00:03:03;;;;;;;3.30;2.33;;;17.20;47.60;;;;;;5148810;27;45132;-64
2024/01/05 00:06:04;;;;;;;4.03;2.47;;;17.20;48.20;;;;;;5148866;27;45188;-63
2024/01/05 00:08:34;;;;;;;3.30;2.30;;;17.20;47.70;;;;;;5148394;27;47381;-63
2024/01/05 00:11:01;;;;;;;5.30;2.25;;;17.20;47.70;;;;;;5148177;27;45259;-66
2024/01/05 00:13:28;;;;;;;2.40;2.08;;;17.10;47.70;;;;;;5140886;27;45301;-64
2024/01/05 00:15:57;;;;;;;3.95;2.50;;;17.10;47.70;;;;;;5128494;27;45277;-63
2024/01/05 00:18:24;;;;;;;3.20;2.10;;;17.10;47.70;;;;;;5125013;27;45236;-64
2024/01/05 00:20:51;;;;;;;3.80;2.17;;;17.10;47.70;;;;;;5127793;27;45265;-63
2024/01/05 00:23:18;;;;;;;4.05;2.10;;;17.00;47.70;;;;;;5127381;27;45222;-64
2024/01/05 00:25:47;;;;;;;3.50;2.15;;;17.00;47.70;;;;;;5126699;27;45411;-64
2024/01/05 00:28:14;;;;;;;3.75;2.13;;;17.00;47.70;;;;;;5127380;27;45246;-64
2024/01/05 00:30:42;;;;;;;3.08;2.30;;;17.00;47.80;;;;;;5127611;27;45207;-64
2024/01/05 00:33:13;;;;;;;3.08;2.20;;;17.00;47.80;;;;;;5127472;27;45419;-64
2024/01/05 00:35:52;;;;;;;2.00;1.80;;;17.00;47.80;;;;;;5127754;27;45506;-66
2024/01/05 00:38:21;;;;;;;2.97;2.10;;;17.00;47.80;;;;;;5127551;27;45836;-63
2024/01/05 00:40:49;;;;;;;4.15;2.20;;;17.00;47.80;;;;;;5126923;27;45369;-63
2024/01/05 00:43:19;;;;;;;3.03;1.60;;;16.90;47.90;;;;;;5126274;27;45252;-66
2024/01/05 00:45:46;;;;;;;3.45;2.03;;;16.90;47.90;;;;;;5127478;27;45397;-63
2024/01/05 00:48:15;;;;;;;3.03;2.15;;;16.90;47.90;;;;;;5124660;27;45418;-64
2024/01/05 00:50:42;;;;;;;4.25;2.00;;;16.90;47.90;;;;;;5127338;27;45136;-64
2024/01/05 00:53:09;;;;;;;5.50;2.33;;;16.90;48.60;;;;;;5127222;27;45293;-65
2024/01/05 00:55:36;;;;;;;2.22;2.00;;;16.90;48.00;;;;;;5127179;27;45401;-66
2024/01/05 00:58:05;;;;;;;3.25;2.17;;;16.90;48.00;;;;;;5127157;27;45570;-66
2024/01/05 01:00:31;;;;;;;2.30;1.95;;;16.80;47.90;;;;;;5127046;27;45244;-64
2024/01/05 01:02:58;;;;;;;2.13;1.73;;;16.80;48.00;;;;;;5127658;27;45520;-63
2024/01/05 01:05:35;;;;;;;3.03;1.80;;;16.80;48.00;;;;;;5126823;27;45572;-63
2024/01/05 01:08:02;;;;;;;2.95;1.92;;;16.80;48.10;;;;;;5126699;27;46971;-63
2024/01/05 01:10:29;;;;;;;3.05;2.03;;;16.80;48.10;;;;;;5126804;27;45271;-63
2024/01/05 01:12:56;;;;;;;2.08;1.65;;;16.80;48.10;;;;;;5130481;27;45199;-63
2024/01/05 01:15:24;;;;;;;2.50;1.63;;;16.80;48.10;;;;;;5147708;27;45492;-63
2024/01/05 01:17:51;;;;;;;2.15;1.60;;;16.70;48.10;;;;;;5145937;27;45448;-66
2024/01/05 01:20:18;;;;;;;4.55;2.00;;;16.70;48.10;;;;;;5148102;27;45480;-64
2024/01/05 01:22:46;;;;;;;2.85;1.85;;;16.70;48.10;;;;;;5149665;27;45265;-66
2024/01/05 01:25:14;;;;;;;2.20;1.73;;;16.70;48.20;;;;;;5151493;27;45457;-64
2024/01/05 01:27:41;;;;;;;3.22;2.00;;;16.70;48.20;;;;;;5151413;27;47029;-63
2024/01/05 01:30:09;;;;;;;1.90;1.77;;;16.60;48.20;;;;;;5151570;27;45283;-66
2024/01/05 01:32:38;;;;;;;2.63;1.60;;;16.60;48.20;;;;;;5151342;27;45217;-64
2024/01/05 01:35:06;;;;;;;2.50;1.70;;;16.70;48.80;;;;;;5151547;27;45403;-64
2024/01/05 01:37:33;;;;;;;2.72;1.90;;;16.60;48.40;;;;;;5150956;27;47311;-64
2024/01/05 01:40:00;;;;;;;2.05;1.65;;;16.60;48.20;;;;;;5150867;27;45187;-66
2024/01/05 01:42:27;;;;;;;2.28;1.60;;;16.60;48.20;;;;;;5151399;27;45194;-64
2024/01/05 01:44:54;;;;;;;2.42;1.60;;;16.60;48.20;;;;;;5151110;27;45352;-64
2024/01/05 01:47:22;;;;;;;1.75;1.40;;;16.60;48.30;;;;;;5150688;27;45768;-64
2024/01/05 01:49:51;;;;;;;2.45;1.70;;;16.60;48.30;;;;;;5150669;27;45233;-63
2024/01/05 01:52:18;;;;;;;2.22;1.48;;;16.50;48.20;;;;;;5150753;27;45217;-64
2024/01/05 01:54:45;;;;;;;3.35;2.08;;;16.50;48.30;;;;;;5148360;27;45319;-64
2024/01/05 01:57:12;;;;;;;3.03;1.58;;;16.50;48.20;;;;;;5150677;27;46677;-63
2024/01/05 01:59:42;;;;;;;3.00;1.70;;;16.50;48.30;;;;;;5150966;27;45321;-64
2024/01/05 02:02:11;;;;;;;2.30;1.55;;;16.50;48.30;;;;;;5151089;27;45199;-64
2024/01/05 02:04:37;;;;;;;3.25;2.00;;;16.40;48.90;;;;;;5150923;27;45548;-64
2024/01/05 02:07:08;;;;;;;1.75;1.50;;;16.40;48.30;;;;;;5150616;27;46863;-65
2024/01/05 02:09:35;;;;;;;2.40;1.50;;;16.40;48.40;;;;;;5150473;27;45441;-64
2024/01/05 02:12:04;;;;;;;2.50;1.73;;;16.40;48.40;;;;;;5147808;27;45419;-64
2024/01/05 02:14:31;;;;;;;2.50;1.48;;;16.40;48.40;;;;;;5150811;27;45193;-64
2024/01/05 02:16:59;;;;;;;2.35;1.42;;;16.40;48.40;;;;;;5150524;27;47992;-64
2024/01/05 02:19:26;;;;;;;1.60;1.50;;;16.40;49.10;;;;;;5150277;27;45341;-64
2024/01/05 02:21:56;;;;;;;3.00;1.55;;;16.40;48.40;;;;;;5150671;27;45436;-65
2024/01/05 02:24:24;;;;;;;2.58;1.70;;;16.40;48.50;;;;;;5150369;27;45631;-64
2024/01/05 02:26:52;;;;;;;1.75;1.55;;;16.30;48.40;;;;;;5150030;27;45538;-64
2024/01/05 02:29:21;;;;;;;1.88;1.55;;;16.30;48.40;;;;;;5150210;27;45313;-64
2024/01/05 02:31:49;;;;;;;2.45;1.60;;;16.30;48.50;;;;;;5150605;27;45212;-64
2024/01/05 02:34:17;;;;;;;4.40;1.85;;;16.30;48.50;;;;;;5150238;27;45350;-64
2024/01/05 02:37:21;;;;;;;2.30;1.40;;;16.30;48.60;;;;;;5148359;27;46419;-64
2024/01/05 02:39:51;;;;;;;1.95;1.52;;;16.20;48.50;;;;;;5149546;27;45236;-64
2024/01/05 02:42:19;;;;;;;1.80;1.63;;;16.20;48.50;;;;;;5148989;27;45265;-65
2024/01/05 02:44:46;;;;;;;2.35;1.48;;;16.20;48.60;;;;;;5147459;27;45501;-64
2024/01/05 02:47:13;;;;;;;1.80;1.33;;;16.20;48.60;;;;;;5149688;27;46648;-64
2024/01/05 02:49:40;;;;;;;2.28;1.50;;;16.20;48.60;;;;;;5149845;27;45249;-64
2024/01/05 02:52:07;;;;;;;2.00;1.38;;;16.20;48.60;;;;;;5149874;27;45215;-64
2024/01/05 02:54:33;;;;;;;1.52;1.30;;;16.20;48.60;;;;;;5149970;27;45461;-65
2024/01/05 02:57:02;;;;;;;1.90;1.60;;;16.10;48.60;;;;;;5149939;27;47316;-64
2024/01/05 02:59:29;;;;;;;1.17;1.02;;;16.10;48.60;;;;;;5150005;27;45263;-64
2024/01/05 03:01:56;;;;;;;2.63;1.35;;;16.10;48.60;;;;;;5149572;27;45194;-64
2024/01/05 03:04:23;;;;;;;1.33;1.20;;;16.10;48.60;;;;;;5147396;27;45217;-64
2024/01/05 03:06:50;;;;;;;1.67;1.40;;;16.10;48.60;;;;;;5149803;27;45430;-64
2024/01/05 03:09:17;;;;;;;1.63;1.20;;;16.10;48.70;;;;;;5149425;27;45365;-64
2024/01/05 03:11:44;;;;;;;1.83;1.38;;;16.10;48.70;;;;;;5150093;27;45316;-64
2024/01/05 03:14:13;;;;;;;2.08;1.40;;;16.10;48.70;;;;;;5148394;27;45264;-65
2024/01/05 03:16:40;;;;;;;2.03;1.40;;;16.10;48.70;;;;;;5149049;27;45457;-64
2024/01/05 03:19:07;;;;;;;2.70;1.48;;;16.10;48.70;;;;;;5149419;27;45277;-64
2024/01/05 03:21:34;;;;;;;3.40;1.25;;;16.10;48.70;;;;;;5149515;27;45469;-64
2024/01/05 03:24:03;;;;;;;1.90;1.10;;;16.10;48.70;;;;;;5149594;27;45485;-64
2024/01/05 03:26:30;;;;;;;1.40;1.08;;;16.00;48.70;;;;;;5149024;27;45600;-65
2024/01/05 03:28:57;;;;;;;1.50;1.30;;;16.00;48.70;;;;;;5149324;27;45296;-64
2024/01/05 03:31:26;;;;;;;1.85;1.40;;;16.00;48.70;;;;;;5149682;27;45293;-64
2024/01/05 03:33:55;;;;;;;2.35;1.48;;;16.00;48.70;;;;;;5149528;27;45398;-63
2024/01/05 03:36:22;;;;;;;1.40;1.30;;;16.00;48.70;;;;;;5149550;27;46389;-64
2024/01/05 03:38:49;;;;;;;1.60;1.50;;;16.00;48.70;;;;;;5148814;27;45349;-64
2024/01/05 03:41:16;;;;;;;1.63;1.13;;;16.00;48.70;;;;;;5149355;27;45272;-64
2024/01/05 03:43:43;;;;;;;2.33;1.40;;;15.90;48.70;;;;;;5149269;27;45203;-64
2024/01/05 03:46:14;;;;;;;1.23;0.98;;;15.90;48.70;;;;;;5147786;27;45398;-64
2024/01/05 03:48:42;;;;;;;1.65;1.40;;;16.00;48.80;;;;;;5147366;27;45312;-64
2024/01/05 03:51:09;;;;;;;1.30;1.15;;;15.90;48.70;;;;;;5146279;27;45132;-64
2024/01/05 03:53:36;;;;;;;1.67;0.93;;;15.90;48.70;;;;;;5148914;27;45399;-64
2024/01/05 03:56:03;;;;;;;1.60;1.10;;;15.90;48.80;;;;;;5148580;27;46376;-64
2024/01/05 03:58:30;;;;;;;1.50;1.40;;;15.90;48.80;;;;;;5148988;27;45198;-64
2024/01/05 04:00:57;;;;;;;1.40;1.30;;;15.90;48.80;;;;;;5146019;27;45137;-64
2024/01/05 04:03:24;;;;;;;2.55;1.60;;;15.90;49.40;;;;;;5148898;27;45186;-64
2024/01/05 04:06:08;;;;;;;1.30;1.20;;;15.90;48.80;;;;;;5148512;27;45889;-64
2024/01/05 04:08:39;;;;;;;1.95;1.40;;;15.90;48.90;;;;;;5148374;27;45682;-64
2024/01/05 04:11:06;;;;;;;1.55;1.30;;;15.90;48.80;;;;;;5148737;27;45209;-64
2024/01/05 04:13:34;;;;;;;1.83;1.27;;;15.90;48.90;;;;;;5148759;27;45383;-64
2024/01/05 04:16:02;;;;;;;1.40;1.02;;;15.90;48.80;;;;;;5148208;27;45648;-64
2024/01/05 04:18:30;;;;;;;1.85;1.55;;;15.90;48.80;;;;;;5147250;27;45238;-64
2024/01/05 04:20:59;;;;;;;1.30;1.20;;;15.90;48.90;;;;;;5148178;27;45320;-65
2024/01/05 04:23:28;;;;;;;1.75;1.42;;;15.90;48.90;;;;;;5148566;27;45522;-64
2024/01/05 04:25:55;;;;;;;1.45;1.10;;;15.80;48.80;;;;;;5148049;27;45309;-64
2024/01/05 04:28:22;;;;;;;1.45;1.30;;;15.80;48.90;;;;;;5145449;27;45214;-64
2024/01/05 04:30:49;;;;;;;1.27;1.13;;;15.80;48.90;;;;;;5148217;27;45282;-64
2024/01/05 04:33:17;;;;;;;1.85;1.35;;;15.80;48.90;;;;;;5148001;27;45457;-64
2024/01/05 04:35:49;;;;;;;1.88;1.00;;;15.80;48.90;;;;;;5147781;27;45478;-64
2024/01/05 04:38:16;;;;;;;1.42;1.02;;;15.80;48.90;;;;;;5148180;27;45356;-64
2024/01/05 04:40:48;;;;;;;1.48;1.00;;;15.80;48.90;;;;;;5147966;27;45352;-64
2024/01/05 04:43:15;;;;;;;1.55;1.40;;;15.80;48.90;;;;;;5148363;27;45264;-64
2024/01/05 04:45:43;;;;;;;1.20;1.02;;;15.80;49.50;;;;;;5147814;27;46612;-64
2024/01/05 04:48:12;;;;;;;2.28;1.50;;;15.80;49.00;;;;;;5147621;27;45241;-65
2024/01/05 04:50:39;;;;;;;1.15;0.90;;;15.80;49.00;;;;;;5148515;27;45142;-66
2024/01/05 04:53:08;;;;;;;1.25;1.02;;;15.80;49.20;;;;;;5130218;27;45360;-65
2024/01/05 04:55:35;;;;;;;0.95;0.90;;;15.80;49.00;;;;;;5145547;27;45998;-66
2024/01/05 04:58:06;;;;;;;1.30;1.20;;;15.80;49.00;;;;;;5152024;27;45222;-65
2024/01/05 05:00:33;;;;;;;2.70;1.33;;;15.80;48.90;;;;;;5152158;27;45395;-66
2024/01/05 05:03:00;;;;;;;1.65;1.10;;;15.80;49.00;;;;;;5151844;27;45277;-66
2024/01/05 05:05:29;;;;;;;1.42;1.30;;;15.80;49.00;;;;;;5151445;27;45349;-65
2024/01/05 05:07:56;;;;;;;1.23;1.10;;;15.80;49.00;;;;;;5149621;27;45271;-65
2024/01/05 05:10:24;;;;;;;1.95;1.20;;;15.80;49.00;;;;;;5151833;27;45292;-66
2024/01/05 05:12:51;;;;;;;0.90;0.90;;;15.80;49.00;;;;;;5152004;27;45183;-66
2024/01/05 05:15:19;;;;;;;1.70;1.00;;;15.80;49.00;;;;;;5151219;27;46513;-65
2024/01/05 05:17:46;;;;;;;1.08;1.08;;;15.80;49.10;;;;;;5151427;27;45309;-66
2024/01/05 05:20:15;;;;;;;1.58;1.10;;;15.70;49.00;;;;;;5151359;27;45474;-65
2024/01/05 05:22:42;;;;;;;1.42;1.13;;;15.70;48.90;;;;;;5151299;27;45597;-65
2024/01/05 05:25:11;;;;;;;1.10;1.00;;;15.70;49.00;;;;;;5151133;27;45519;-66
2024/01/05 05:27:38;;;;;;;2.10;1.40;;;15.70;49.00;;;;;;5151260;27;45231;-65
2024/01/05 05:30:07;;;;;;;1.58;1.25;;;15.70;49.00;;;;;;5151854;27;45304;-64
2024/01/05 05:32:38;;;;;;;1.50;1.38;;;15.70;49.10;;;;;;5151352;27;45240;-64
2024/01/05 05:35:08;;;;;;;1.63;1.35;;;15.70;49.10;;;;;;5151260;27;47633;-65
2024/01/05 05:37:35;;;;;;;1.88;1.20;;;15.70;49.10;;;;;;5149988;27;45239;-64
2024/01/05 05:40:03;;;;;;;1.23;1.15;;;15.70;49.10;;;;;;5150954;27;45453;-65
2024/01/05 05:42:30;;;;;;;1.90;1.10;;;15.70;49.10;;;;;;5151118;27;45258;-64
2024/01/05 05:44:57;;;;;;;2.15;1.30;;;15.70;49.10;;;;;;5150700;27;46920;-64
2024/01/05 05:47:25;;;;;;;1.27;0.90;;;15.70;49.10;;;;;;5150844;27;45282;-66
2024/01/05 05:49:54;;;;;;;1.05;0.88;;;15.70;49.10;;;;;;5150855;27;45291;-64
2024/01/05 05:52:21;;;;;;;0.77;0.77;;;15.70;49.10;;;;;;5151037;27;45183;-64
2024/01/05 05:54:48;;;;;;;1.33;1.10;;;15.70;49.10;;;;;;5150278;27;46626;-64
2024/01/05 05:57:15;;;;;;;1.17;1.00;;;15.60;49.00;;;;;;5148076;27;45145;-64
2024/01/05 05:59:42;;;;;;;1.90;1.13;;;15.60;49.00;;;;;;5151133;27;45342;-65
2024/01/05 06:02:10;;;;;;;1.08;1.00;;;15.60;49.10;;;;;;5151361;27;45450;-65
2024/01/05 06:04:40;;;;;;;1.50;1.20;;;15.60;49.10;;;;;;5149066;27;47919;-65
2024/01/05 06:07:09;;;;;;;1.33;0.95;;;15.60;49.10;;;;;;5150267;27;45242;-65
2024/01/05 06:09:36;;;;;;;1.30;1.20;;;15.60;49.20;;;;;;5149388;27;45324;-64
2024/01/05 06:12:04;;;;;;;1.33;1.10;;;15.60;49.30;;;;;;5150309;27;45677;-64
2024/01/05 06:14:31;;;;;;;1.33;1.20;;;15.60;49.10;;;;;;5150412;27;46656;-64
2024/01/05 06:16:59;;;;;;;1.27;1.05;;;15.70;49.10;;;;;;5150646;27;45389;-64
2024/01/05 06:19:26;;;;;;;3.03;1.02;;;15.80;49.00;;;;;;5150782;27;45226;-64
2024/01/05 06:21:54;;;;;;;1.63;1.13;;;15.90;48.90;;;;;;5150842;27;45187;-64
2024/01/05 06:24:23;;;;;;;2.58;1.25;;;16.00;48.80;;;;;;5150295;27;45419;-65
2024/01/05 06:26:50;;;;;;;1.42;1.08;;;16.10;48.50;;;;;;5150075;27;45236;-64
2024/01/05 06:29:17;;;;;;;1.33;0.82;;;16.20;48.40;;;;;;5150526;27;45179;-64
2024/01/05 06:31:44;;;;;;;1.17;1.00;;;16.30;48.10;;;;;;5150519;27;45180;-64
2024/01/05 06:34:17;;;;;;;0.82;0.82;;;16.40;47.90;;;;;;5148546;27;45434;-64
2024/01/05 06:36:44;;;;;;;0.75;0.75;;;16.50;47.70;;;;;;5150027;27;45143;-64
2024/01/05 06:39:12;;;;;;;0.93;0.90;;;16.60;47.60;;;;;;5148528;27;45417;-64
2024/01/05 06:41:40;;;;;;;0.90;0.90;;;16.70;47.40;;;;;;5150323;27;45508;-64
2024/01/05 06:44:08;;;;;;;1.33;0.80;;;16.80;47.20;;;;;;5149649;27;48565;-64
2024/01/05 06:46:36;;;;;;;2.40;1.35;;;16.90;47.10;;;;;;5149838;27;45259;-64
2024/01/05 06:49:03;;;;;;;1.63;0.77;;;17.00;46.90;;;;;;5150057;27;45346;-64
2024/01/05 06:51:39;;;;;;;1.20;0.90;;;17.00;46.80;;;;;;5150175;27;45301;-64
2024/01/05 06:54:06;;;;;;;0.88;0.77;;;17.20;46.70;;;;;;5149859;27;45418;-64
2024/01/05 06:56:33;;;;;;;1.25;0.90;;;17.20;46.50;;;;;;5148715;27;45203;-64
2024/01/05 06:59:01;;;;;;;1.70;0.70;;;17.30;46.40;;;;;;5149505;27;45262;-63
2024/01/05 07:01:28;;;;;;;0.60;0.60;;;17.40;46.30;;;;;;5149710;27;45369;-64
2024/01/05 07:03:55;;;;;;;0.88;0.77;;;17.40;46.10;;;;;;5146972;27;45977;-64
2024/01/05 07:06:22;;;;;;;1.30;1.00;;;17.50;46.10;;;;;;5149997;27;45231;-64
2024/01/05 07:08:49;;;;;;;1.13;1.02;;;17.60;46.00;;;;;;5149726;27;45211;-65
2024/01/05 07:11:22;;;;;;;1.05;0.80;;;17.60;45.80;;;;;;5149718;27;45337;-64
2024/01/05 07:13:49;;;;;;;1.10;0.95;;;17.70;45.80;;;;;;5149194;27;47866;-64
2024/01/05 07:16:18;;;;;;;0.80;0.80;;;17.70;45.60;;;;;;5148171;27;45489;-64
2024/01/05 07:18:47;;;;;;;1.88;0.80;;;17.80;45.50;;;;;;5149213;27;45303;-64
2024/01/05 07:21:14;;;;;;;1.23;0.85;;;17.90;45.50;;;;;;5148862;27;45286;-64
2024/01/05 07:23:50;;;;;;;2.53;0.80;;;17.90;45.40;;;;;;5149143;27;46701;-65
2024/01/05 07:26:23;;;;;;;0.85;0.85;;;17.90;45.30;;;;;;5149337;27;45224;-65
2024/01/05 07:28:50;;;;;;;1.33;0.90;;;18.00;45.20;;;;;;5149465;27;45157;-64
2024/01/05 07:31:25;;;;;;;1.30;1.00;;;18.00;45.10;;;;;;5149669;27;45223;-64
2024/01/05 07:33:56;;;;;;;1.08;0.90;;;18.10;45.10;;;;;;5149065;27;46974;-64
2024/01/05 07:36:23;;;;;;;1.15;0.80;;;18.10;45.00;;;;;;5149334;27;45259;-65
2024/01/05 07:38:51;;;;;;;1.13;1.00;;;18.20;45.00;;;;;;5130409;27;45223;-64
2024/01/05 07:41:19;;;;;;;0.88;0.88;;;18.20;44.90;;;;;;5149258;27;45223;-65
2024/01/05 07:43:46;;;;;;;1.13;0.70;;;18.20;44.80;;;;;;5149209;27;48356;-65
2024/01/05 07:46:13;;;;;;;0.80;0.80;;;18.20;44.70;;;;;;5148934;27;45214;-64
2024/01/05 07:48:47;;;;;;;2.22;1.00;;;18.30;44.80;;;;;;5149350;27;45156;-64
2024/01/05 07:51:14;;;;;;;2.22;0.70;;;18.30;44.70;;;;;;5149326;27;45562;-64
2024/01/05 07:53:41;;;;;;;1.20;0.95;;;18.40;44.60;;;;;;5148490;27;45472;-64
2024/01/05 07:56:09;;;;;;;2.30;0.77;;;18.40;44.60;;;;;;5147002;27;45356;-64
2024/01/05 07:58:36;;;;;;;1.52;0.90;;;18.40;44.50;;;;;;5146012;27;45294;-65
2024/01/05 08:01:03;;;;;;;1.55;1.10;;;18.50;44.50;;;;;;5145021;27;45188;-65
2024/01/05 08:03:33;;;;;;;1.33;1.10;;;18.50;44.50;;;;;;5148401;27;45719;-65
2024/01/05 08:06:08;;;;;;;0.98;0.70;;;18.50;44.40;;;;;;5147195;27;45357;-65
2024/01/05 08:08:40;;;;;;;0.65;0.65;;;18.50;44.40;;;;;;5147506;27;45463;-65
2024/01/05 08:11:07;;;;;;;0.75;0.73;;;18.60;44.40;;;;;;5148737;27;45210;-65
2024/01/05 08:13:34;;;;;;;1.00;0.85;;;18.60;44.40;;;;;;5148333;27;45824;-65
2024/01/05 08:16:03;;;;;;;2.97;1.10;;;18.60;44.30;;;;;;5148333;27;45407;-65
2024/01/05 08:18:31;;;;;;;2.85;0.75;;;18.60;44.40;;;;;;5148840;27;45313;-64
2024/01/05 08:20:58;;;;;;;2.47;0.93;;;18.60;44.30;;;;;;5146522;27;45432;-64
2024/01/05 08:23:27;;;;;;;0.98;0.73;;;18.60;44.30;;;;;;5147725;27;46685;-64
2024/01/05 08:26:01;;;;;;;1.45;1.00;;;18.60;44.30;;;;;;5148312;27;45255;-64
2024/01/05 08:28:30;;;;;;;2.05;0.82;;;18.60;44.30;;;;;;5148177;27;45294;-65
2024/01/05 08:30:57;;;;;;;2.67;1.10;;;18.70;44.30;;;;;;5148327;27;45170;-65
2024/01/05 08:33:24;;;;;;;1.45;0.98;;;18.70;44.10;;;;;;5148604;27;45335;-65
2024/01/05 08:35:54;;;;;;;1.83;1.27;;;18.70;44.10;;;;;;5147957;27;45396;-65
2024/01/05 08:38:24;;;;;;;1.88;0.90;;;18.70;44.10;;;;;;5148330;27;45255;-65
2024/01/05 08:40:52;;;;;;;1.20;1.10;;;18.80;44.10;;;;;;5147839;27;45563;-65
2024/01/05 08:43:21;;;;;;;3.25;1.17;;;18.80;44.10;;;;;;5147938;27;45212;-66
2024/01/05 08:45:48;;;;;;;1.17;0.90;;;18.80;44.10;;;;;;5147811;27;45424;-65
2024/01/05 08:48:15;;;;;;;1.58;1.10;;;18.80;44.00;;;;;;5147869;27;45296;-65
2024/01/05 08:50:42;;;;;;;2.83;1.00;;;18.90;44.00;;;;;;5147952;27;45184;-65
2024/01/05 08:53:10;;;;;;;1.23;1.05;;;18.90;44.00;;;;;;5147797;27;48535;-66
2024/01/05 08:55:38;;;;;;;1.02;0.90;;;18.90;44.00;;;;;;5144193;27;45154;-65
2024/01/05 08:58:07;;;;;;;1.17;0.88;;;18.90;44.00;;;;;;5147942;27;45431;-65
2024/01/05 09:00:34;;;;;;;1.33;1.10;;;18.90;44.00;;;;;;5147782;27;45302;-65
2024/01/05 09:03:01;;;;;;;1.45;1.02;;;18.90;44.00;;;;;;5147561;27;46307;-65
2024/01/05 09:05:35;;;;;;;2.35;1.35;;;19.00;44.00;;;;;;5147710;27;45293;-64
2024/01/05 09:08:04;;;;;;;1.58;1.10;;;19.00;44.00;;;;;;5146760;27;45293;-65
2024/01/05 09:10:32;;;;;;;1.95;1.27;;;19.00;43.90;;;;;;5147721;27;45461;-66
2024/01/05 09:13:00;;;;;;;4.60;1.33;;;19.00;44.00;;;;;;5146323;27;45415;-66
2024/01/05 09:15:29;;;;;;;2.25;1.02;;;19.00;43.90;;;;;;5147814;27;45267;-65
2024/01/05 09:17:57;;;;;;;2.38;1.40;;;19.00;44.00;;;;;;5146537;27;45444;-65
2024/01/05 09:20:26;;;;;;;2.05;1.30;;;19.10;44.00;;;;;;5146402;27;45683;-64
2024/01/05 09:22:52;;;;;;;2.65;1.15;;;19.10;44.00;;;;;;5147517;27;45433;-67
2024/01/05 09:25:20;;;;;;;5.93;1.27;;;19.10;44.00;;;;;;5147290;27;45804;-66
2024/01/05 09:27:47;;;;;;;3.17;1.38;;;19.10;44.00;;;;;;5146685;27;45495;-65
2024/01/05 09:30:15;;;;;;;2.60;1.50;;;19.10;44.00;;;;;;5147692;27;45653;-65
2024/01/05 09:32:43;;;;;;;2.03;1.40;;;19.10;44.00;;;;;;5145972;27;45419;-65
2024/01/05 09:35:22;;;;;;;2.25;1.52;;;19.10;44.00;;;;;;5147636;27;45305;-65
2024/01/05 09:37:50;;;;;;;4.00;1.45;;;19.20;44.00;;;;;;5147678;27;45218;-67
2024/01/05 09:40:18;;;;;;;2.40;1.50;;;19.10;44.00;;;;;;5147207;27;45491;-67
2024/01/05 09:42:50;;;;;;;2.55;1.48;;;19.20;44.00;;;;;;5147027;27;45524;-64
2024/01/05 09:45:17;;;;;;;3.78;1.65;;;19.20;44.30;;;;;;5150952;27;45185;-65
2024/01/05 09:47:45;;;;;;;3.30;1.20;;;19.30;44.30;;;;;;5150945;27;45384;-65
2024/01/05 09:50:12;;;;;;;3.10;1.52;;;19.40;44.10;;;;;;5151078;27;45272;-67
2024/01/05 09:52:40;;;;;;;3.70;1.30;;;19.40;44.00;;;;;;5150862;27;46640;-67
2024/01/05 09:55:07;;;;;;;2.70;1.45;;;19.50;43.70;;;;;;5150609;27;45152;-66
2024/01/05 09:57:34;;;;;;;3.45;1.42;;;19.50;43.80;;;;;;5150568;27;45383;-64
2024/01/05 10:00:03;;;;;;;3.70;1.88;;;19.50;44.00;;;;;;5150429;27;45440;-65
2024/01/05 10:02:32;;;;;;;10.98;2.70;;;19.60;43.70;;;;;;5149809;27;45236;-66
2024/01/05 10:05:01;;;;;;;7.25;2.20;;;19.60;44.00;;;;;;5150144;27;45283;-66
2024/01/05 10:07:28;;;;;;;3.95;2.17;;;19.70;44.00;;;;;;5150254;27;45173;-64
2024/01/05 10:09:55;;;;;;;4.82;2.40;;;19.80;43.80;;;;;;5150551;27;45179;-66
2024/01/05 10:12:22;;;;;;;7.82;3.08;;;19.80;43.70;;;;;;5150213;27;46667;-64
2024/01/05 10:14:49;;;;;;;5.63;2.28;;;19.90;43.60;;;;;;5150066;27;45269;-65
2024/01/05 10:17:16;;;;;;;5.07;2.60;;;19.90;44.00;;;;;;5150103;27;45383;-65
2024/01/05 10:19:43;;;;;;;7.00;2.28;;;20.00;43.60;;;;;;5150137;27;45263;-66
2024/01/05 10:22:12;;;;;;;3.40;2.15;;;20.10;44.40;;;;;;5149762;27;47322;-66
2024/01/05 10:24:39;;;;;;;4.70;2.33;;;20.00;44.00;;;;;;5149848;27;46441;-66
2024/01/05 10:27:06;;;;;;;3.90;2.22;;;20.00;43.50;;;;;;5149869;27;45298;-66
2024/01/05 10:29:33;;;;;;;2.95;2.30;;;19.90;43.50;;;;;;5147260;27;45327;-66
2024/01/05 10:32:10;;;;;;;5.15;2.28;;;19.90;43.70;;;;;;5149603;27;45480;-66
2024/01/05 10:34:37;;;;;;;4.47;2.13;;;19.80;44.40;;;;;;5149514;27;45965;-66
2024/01/05 10:37:04;;;;;;;3.70;2.47;;;19.80;43.80;;;;;;5149875;27;45301;-67
2024/01/05 10:39:33;;;;;;;3.55;2.30;;;19.80;43.90;;;;;;5149622;27;45380;-66
2024/01/05 10:42:18;;;;;;;4.40;2.55;;;19.80;43.90;;;;;;5149523;27;46346;-65
2024/01/05 10:44:45;;;;;;;3.60;2.03;;;19.80;43.90;;;;;;5149595;27;45270;-65
2024/01/05 10:47:13;;;;;;;5.32;2.25;;;19.70;43.90;;;;;;5149723;27;45276;-66
2024/01/05 10:49:39;;;;;;;2.95;2.13;;;19.70;44.00;;;;;;5149738;27;45396;-68
2024/01/05 10:52:06;;;;;;;3.00;2.00;;;19.70;44.00;;;;;;5149355;27;45451;-67
2024/01/05 10:54:35;;;;;;;3.20;2.35;;;19.70;44.00;;;;;;5149114;27;45218;-65
2024/01/05 10:57:02;;;;;;;5.40;2.50;;;19.70;44.00;;;;;;5149305;27;45260;-65
2024/01/05 10:59:29;;;;;;;4.50;2.22;;;19.70;44.00;;;;;;5149612;27;45442;-65
2024/01/05 11:01:56;;;;;;;5.35;2.38;;;19.70;44.00;;;;;;5149558;27;45372;-65
2024/01/05 11:04:23;;;;;;;3.70;2.55;;;19.70;44.00;;;;;;5146652;27;45396;-65
2024/01/05 11:06:51;;;;;;;4.32;2.17;;;19.80;44.10;;;;;;5149348;27;45290;-64
2024/01/05 11:09:22;;;;;;;6.22;2.30;;;19.80;44.10;;;;;;5149336;27;45205;-65
2024/01/05 11:11:56;;;;;;;4.43;2.35;;;19.70;44.10;;;;;;5149014;27;45183;-65
2024/01/05 11:14:36;;;;;;;2.78;2.03;;;19.80;44.10;;;;;;5149007;27;45378;-65
2024/01/05 11:17:28;;;;;;;4.32;2.20;;;19.70;44.10;;;;;;5149176;27;45311;-66
2024/01/05 11:20:04;;;;;;;3.10;2.13;;;19.80;44.20;;;;;;5149527;27;45249;-65
2024/01/05 11:22:33;;;;;;;3.42;2.20;;;19.70;44.10;;;;;;5148670;27;46696;-66
2024/01/05 11:25:00;;;;;;;3.38;2.20;;;19.70;44.10;;;;;;5149432;27;45293;-66
2024/01/05 11:27:29;;;;;;;2.83;2.38;;;19.80;44.20;;;;;;5146402;27;45412;-66
2024/01/05 11:29:56;;;;;;;4.03;2.22;;;19.80;44.20;;;;;;5149237;27;45445;-66
2024/01/05 11:32:36;;;;;;;3.58;2.50;;;19.80;44.20;;;;;;5148594;27;48587;-66
2024/01/05 11:35:04;;;;;;;3.53;2.65;;;19.80;44.20;;;;;;5148633;27;46096;-66
2024/01/05 11:37:31;;;;;;;3.17;2.50;;;19.80;44.20;;;;;;5148695;27;45202;-66
2024/01/05 11:39:59;;;;;;;4.22;3.35;;;19.80;44.20;;;;;;5148529;27;45293;-65
2024/01/05 11:42:31;;;;;;;2.95;2.65;;;19.80;44.20;;;;;;5148301;27;47802;-66
2024/01/05 11:44:59;;;;;;;3.42;2.28;;;19.80;44.30;;;;;;5148308;27;45409;-64
2024/01/05 11:47:42;;;;;;;6.38;2.63;;;19.80;44.30;;;;;;5148660;27;45230;-67
2024/01/05 11:50:24;;;;;;;4.18;2.40;;;19.80;44.20;;;;;;5146875;27;45574;-66
2024/01/05 11:53:07;;;;;;;5.35;2.40;;;19.80;44.20;;;;;;5140205;27;45855;-66
2024/01/05 11:55:39;;;;;;;7.50;3.00;;;19.80;44.20;;;;;;5148078;27;45366;-67
2024/01/05 11:58:08;;;;;;;7.50;2.95;;;19.80;44.30;;;;;;5167940;27;45326;-67
2024/01/05 12:00:36;;;;;;;4.43;2.63;;;19.80;44.30;;;;;;5152304;27;45353;-66
2024/01/05 12:03:03;;;;;;;9.57;2.58;;;19.80;44.30;;;;;;5148305;27;46226;-67
2024/01/05 12:05:31;;;;;;;8.27;3.00;;;19.80;44.30;;;;;;5146991;27;45434;-67
2024/01/05 12:07:58;;;;;;;4.07;3.15;;;19.80;44.30;;;;;;5148060;27;45302;-66
2024/01/05 12:10:25;;;;;;;8.07;2.63;;;19.80;44.20;;;;;;5148488;27;45376;-66
2024/01/05 12:12:52;;;;;;;6.00;2.80;;;19.80;44.30;;;;;;5148047;27;45294;-66
2024/01/05 12:15:21;;;;;;;11.38;3.47;;;19.90;44.40;;;;;;5148062;27;45296;-65
2024/01/05 12:17:48;;;;;;;6.95;3.17;;;19.90;44.50;;;;;;5148224;27;45437;-66
2024/01/05 12:20:15;;;;;;;11.18;3.05;;;19.90;44.50;;;;;;5148464;27;45289;-67
2024/01/05 12:22:42;;;;;;;11.45;3.25;;;19.90;44.40;;;;;;5147815;27;46799;-67
2024/01/05 12:25:10;;;;;;;6.10;2.83;;;19.90;44.40;;;;;;5147976;27;45408;-66
2024/01/05 12:27:37;;;;;;;6.22;2.50;;;19.90;44.40;;;;;;5148488;27;45401;-68
2024/01/05 12:30:05;;;;;;;7.53;2.47;;;19.90;44.40;;;;;;5148121;27;45369;-67
2024/01/05 12:32:34;;;;;;;7.45;2.55;;;19.90;44.40;;;;;;5148224;27;47684;-67
2024/01/05 12:35:04;;;;;;;5.35;3.20;;;20.00;44.40;;;;;;5147717;27;45353;-67
2024/01/05 12:37:31;;;;;;;8.98;3.78;;;20.00;44.40;;;;;;5148140;27;45157;-67
2024/01/05 12:40:10;;;;;;;10.05;3.60;;;20.00;45.00;;;;;;5147785;27;45340;-68
2024/01/05 12:42:37;;;;;;;17.15;4.82;;;20.00;44.40;;;;;;5147662;27;45556;-68
2024/01/05 12:45:13;;;;;;;13.73;4.63;;;20.00;44.50;;;;;;5147522;27;45137;-68
2024/01/05 12:47:41;;;;;;;9.20;4.22;;;20.00;44.60;;;;;;5147771;27;45262;-67
2024/01/05 12:50:22;;;;;;;11.35;4.28;;;20.00;44.60;;;;;;5147719;27;45206;-66
2024/01/05 12:52:49;;;;;;;12.70;4.85;;;20.00;44.60;;;;;;5147442;27;46365;-66